sensor_id;sensor_type;location;lat;lon;timestamp;P1;durP1;ratioP1;P2;durP2;ratioP2
46815;SDS011;32787;53.316;8.670;2023-04-01T00:00:51;18.05;;;11.00;;
46815;SDS011;32787;53.316;8.670;2023-04-01T00:03:17;15.48;;;10.02;;
46815;SDS011;32787;53.316;8.670;2023-04-01T00:05:44;16.35;;;10.45;;
46815;SDS011;32787;53.316;8.670;2023-04-01T00:08:10;16.88;;;10.65;;
46815;SDS011;32787;53.316;8.670;2023-04-01T00:10:36;20.70;;;11.85;;
46815;SDS011;32787;53.316;8.670;2023-04-01T00:13:02;18.08;;;11.93;;
46815;SDS011;32787;53.316;8.670;2023-04-01T00:15:28;19.08;;;11.85;;
46815;SDS011;32787;53.316;8.670;2023-04-01T00:17:53;22.70;;;12.40;;
46815;SDS011;32787;53.316;8.670;2023-04-01T00:20:20;20.23;;;12.52;;
46815;SDS011;32787;53.316;8.670;2023-04-01T00:22:45;19.77;;;12.02;;
46815;SDS011;32787;53.316;8.670;2023-04-01T00:25:11;21.77;;;13.23;;
46815;SDS011;32787;53.316;8.670;2023-04-01T00:27:37;20.65;;;13.43;;
46815;SDS011;32787;53.316;8.670;2023-04-01T00:30:03;22.63;;;13.50;;
46815;SDS011;32787;53.316;8.670;2023-04-01T00:32:29;22.08;;;13.95;;
46815;SDS011;32787;53.316;8.670;2023-04-01T00:34:56;26.58;;;13.65;;
46815;SDS011;32787;53.316;8.670;2023-04-01T00:37:23;22.17;;;13.10;;
46815;SDS011;32787;53.316;8.670;2023-04-01T00:39:49;21.33;;;12.65;;
46815;SDS011;32787;53.316;8.670;2023-04-01T00:42:15;25.60;;;13.45;;
46815;SDS011;32787;53.316;8.670;2023-04-01T00:44:41;21.13;;;13.68;;
46815;SDS011;32787;53.316;8.670;2023-04-01T00:47:09;22.70;;;13.10;;
46815;SDS011;32787;53.316;8.670;2023-04-01T00:49:39;20.63;;;12.40;;
46815;SDS011;32787;53.316;8.670;2023-04-01T00:52:07;21.80;;;13.02;;
46815;SDS011;32787;53.316;8.670;2023-04-01T00:54:35;20.13;;;12.60;;
46815;SDS011;32787;53.316;8.670;2023-04-01T00:57:06;23.67;;;13.15;;
46815;SDS011;32787;53.316;8.670;2023-04-01T00:59:39;22.95;;;13.50;;
46815;SDS011;32787;53.316;8.670;2023-04-01T01:02:12;27.85;;;15.18;;
46815;SDS011;32787;53.316;8.670;2023-04-01T01:04:39;27.02;;;14.45;;
46815;SDS011;32787;53.316;8.670;2023-04-01T01:10:49;22.95;;;13.30;;
46815;SDS011;32787;53.316;8.670;2023-04-01T01:13:14;23.67;;;14.68;;
46815;SDS011;32787;53.316;8.670;2023-04-01T01:16:01;23.23;;;14.57;;
46815;SDS011;32787;53.316;8.670;2023-04-01T01:18:35;25.67;;;14.35;;
46815;SDS011;32787;53.316;8.670;2023-04-01T01:21:33;23.05;;;14.75;;
46815;SDS011;32787;53.316;8.670;2023-04-01T01:24:13;25.58;;;13.90;;
46815;SDS011;32787;53.316;8.670;2023-04-01T01:27:10;26.95;;;14.13;;
46815;SDS011;32787;53.316;8.670;2023-04-01T01:38:03;26.73;;;15.32;;
46815;SDS011;32787;53.316;8.670;2023-04-01T01:40:35;25.48;;;14.77;;
46815;SDS011;32787;53.316;8.670;2023-04-01T01:43:06;19.65;;;12.45;;
46815;SDS011;32787;53.316;8.670;2023-04-01T01:45:36;23.80;;;13.02;;
46815;SDS011;32787;53.316;8.670;2023-04-01T01:48:09;22.02;;;12.95;;
46815;SDS011;32787;53.316;8.670;2023-04-01T01:50:36;21.33;;;13.00;;
46815;SDS011;32787;53.316;8.670;2023-04-01T01:53:06;20.90;;;12.30;;
46815;SDS011;32787;53.316;8.670;2023-04-01T01:55:35;22.65;;;12.95;;
46815;SDS011;32787;53.316;8.670;2023-04-01T01:58:17;19.73;;;11.27;;
46815;SDS011;32787;53.316;8.670;2023-04-01T02:00:46;16.98;;;10.70;;
46815;SDS011;32787;53.316;8.670;2023-04-01T02:03:19;17.20;;;11.02;;
46815;SDS011;32787;53.316;8.670;2023-04-01T02:05:47;19.88;;;11.73;;
46815;SDS011;32787;53.316;8.670;2023-04-01T02:08:16;17.52;;;11.27;;
46815;SDS011;32787;53.316;8.670;2023-04-01T02:11:21;18.50;;;11.43;;
46815;SDS011;32787;53.316;8.670;2023-04-01T02:13:48;15.95;;;10.68;;
46815;SDS011;32787;53.316;8.670;2023-04-01T02:16:18;20.42;;;11.00;;
46815;SDS011;32787;53.316;8.670;2023-04-01T02:18:50;16.08;;;11.00;;
46815;SDS011;32787;53.316;8.670;2023-04-01T02:21:19;18.20;;;10.98;;
46815;SDS011;32787;53.316;8.670;2023-04-01T02:23:47;18.95;;;11.13;;
46815;SDS011;32787;53.316;8.670;2023-04-01T02:26:14;17.17;;;10.80;;
46815;SDS011;32787;53.316;8.670;2023-04-01T02:28:40;20.02;;;11.95;;
46815;SDS011;32787;53.316;8.670;2023-04-01T02:31:11;17.85;;;11.13;;
46815;SDS011;32787;53.316;8.670;2023-04-01T02:33:39;20.38;;;12.88;;
46815;SDS011;32787;53.316;8.670;2023-04-01T02:36:05;18.25;;;11.35;;
46815;SDS011;32787;53.316;8.670;2023-04-01T02:38:31;18.83;;;12.55;;
46815;SDS011;32787;53.316;8.670;2023-04-01T02:40:59;20.63;;;13.10;;
46815;SDS011;32787;53.316;8.670;2023-04-01T02:43:26;20.15;;;13.38;;
46815;SDS011;32787;53.316;8.670;2023-04-01T02:45:52;18.85;;;12.13;;
46815;SDS011;32787;53.316;8.670;2023-04-01T02:48:18;20.63;;;13.48;;
46815;SDS011;32787;53.316;8.670;2023-04-01T02:50:43;20.77;;;12.65;;
46815;SDS011;32787;53.316;8.670;2023-04-01T02:53:09;20.17;;;12.32;;
46815;SDS011;32787;53.316;8.670;2023-04-01T02:55:35;21.67;;;13.40;;
46815;SDS011;32787;53.316;8.670;2023-04-01T02:58:00;20.63;;;13.10;;
46815;SDS011;32787;53.316;8.670;2023-04-01T03:00:26;16.50;;;11.75;;
46815;SDS011;32787;53.316;8.670;2023-04-01T03:02:52;20.17;;;12.10;;
46815;SDS011;32787;53.316;8.670;2023-04-01T03:05:18;17.95;;;12.07;;
46815;SDS011;32787;53.316;8.670;2023-04-01T03:07:45;23.05;;;12.05;;
46815;SDS011;32787;53.316;8.670;2023-04-01T03:10:11;19.05;;;12.30;;
46815;SDS011;32787;53.316;8.670;2023-04-01T03:12:37;21.58;;;11.63;;
46815;SDS011;32787;53.316;8.670;2023-04-01T03:15:03;19.90;;;11.95;;
46815;SDS011;32787;53.316;8.670;2023-04-01T03:17:29;20.20;;;11.82;;
46815;SDS011;32787;53.316;8.670;2023-04-01T03:19:55;17.55;;;11.48;;
46815;SDS011;32787;53.316;8.670;2023-04-01T03:22:20;17.48;;;11.82;;
46815;SDS011;32787;53.316;8.670;2023-04-01T03:24:47;17.33;;;11.10;;
46815;SDS011;32787;53.316;8.670;2023-04-01T03:27:13;18.02;;;12.20;;
46815;SDS011;32787;53.316;8.670;2023-04-01T03:29:39;20.33;;;12.00;;
46815;SDS011;32787;53.316;8.670;2023-04-01T03:32:05;18.90;;;11.63;;
46815;SDS011;32787;53.316;8.670;2023-04-01T03:34:30;19.92;;;11.70;;
46815;SDS011;32787;53.316;8.670;2023-04-01T03:36:57;20.25;;;12.00;;
46815;SDS011;32787;53.316;8.670;2023-04-01T03:39:23;21.10;;;12.50;;
46815;SDS011;32787;53.316;8.670;2023-04-01T03:41:49;20.60;;;12.30;;
46815;SDS011;32787;53.316;8.670;2023-04-01T03:44:15;21.60;;;12.57;;
46815;SDS011;32787;53.316;8.670;2023-04-01T03:46:41;21.67;;;13.38;;
46815;SDS011;32787;53.316;8.670;2023-04-01T03:49:07;18.27;;;12.35;;
46815;SDS011;32787;53.316;8.670;2023-04-01T03:51:36;18.08;;;11.98;;
46815;SDS011;32787;53.316;8.670;2023-04-01T03:54:03;18.83;;;12.00;;
46815;SDS011;32787;53.316;8.670;2023-04-01T03:56:29;20.25;;;11.95;;
46815;SDS011;32787;53.316;8.670;2023-04-01T03:58:55;20.33;;;12.88;;
46815;SDS011;32787;53.316;8.670;2023-04-01T04:01:21;18.40;;;12.02;;
46815;SDS011;32787;53.316;8.670;2023-04-01T04:03:48;18.73;;;12.48;;
46815;SDS011;32787;53.316;8.670;2023-04-01T04:06:14;20.08;;;12.45;;
46815;SDS011;32787;53.316;8.670;2023-04-01T04:08:41;20.85;;;12.70;;
46815;SDS011;32787;53.316;8.670;2023-04-01T04:11:07;18.65;;;12.23;;
46815;SDS011;32787;53.316;8.670;2023-04-01T04:13:33;19.38;;;13.25;;
46815;SDS011;32787;53.316;8.670;2023-04-01T04:16:00;18.73;;;12.25;;
46815;SDS011;32787;53.316;8.670;2023-04-01T04:18:27;19.95;;;12.85;;
46815;SDS011;32787;53.316;8.670;2023-04-01T04:20:52;20.73;;;13.15;;
46815;SDS011;32787;53.316;8.670;2023-04-01T04:23:18;17.85;;;11.57;;
46815;SDS011;32787;53.316;8.670;2023-04-01T04:25:56;18.08;;;11.70;;
46815;SDS011;32787;53.316;8.670;2023-04-01T04:28:24;17.15;;;12.27;;
46815;SDS011;32787;53.316;8.670;2023-04-01T04:30:51;20.33;;;12.70;;
46815;SDS011;32787;53.316;8.670;2023-04-01T04:33:16;20.58;;;12.55;;
46815;SDS011;32787;53.316;8.670;2023-04-01T04:35:42;20.30;;;12.40;;
46815;SDS011;32787;53.316;8.670;2023-04-01T04:38:08;19.63;;;12.38;;
46815;SDS011;32787;53.316;8.670;2023-04-01T04:40:35;18.80;;;12.10;;
46815;SDS011;32787;53.316;8.670;2023-04-01T04:43:02;19.58;;;11.52;;
46815;SDS011;32787;53.316;8.670;2023-04-01T04:45:28;22.00;;;12.85;;
46815;SDS011;32787;53.316;8.670;2023-04-01T04:47:54;21.88;;;12.32;;
46815;SDS011;32787;53.316;8.670;2023-04-01T04:50:19;20.20;;;12.52;;
46815;SDS011;32787;53.316;8.670;2023-04-01T04:52:45;19.70;;;11.93;;
46815;SDS011;32787;53.316;8.670;2023-04-01T04:55:11;18.80;;;11.88;;
46815;SDS011;32787;53.316;8.670;2023-04-01T04:57:36;19.38;;;11.60;;
46815;SDS011;32787;53.316;8.670;2023-04-01T05:00:02;18.25;;;11.15;;
46815;SDS011;32787;53.316;8.670;2023-04-01T05:02:28;17.75;;;10.77;;
46815;SDS011;32787;53.316;8.670;2023-04-01T05:04:54;20.95;;;11.10;;
46815;SDS011;32787;53.316;8.670;2023-04-01T05:07:20;19.25;;;11.15;;
46815;SDS011;32787;53.316;8.670;2023-04-01T05:09:46;18.02;;;11.57;;
46815;SDS011;32787;53.316;8.670;2023-04-01T05:12:11;22.38;;;12.18;;
46815;SDS011;32787;53.316;8.670;2023-04-01T05:14:38;20.33;;;12.13;;
46815;SDS011;32787;53.316;8.670;2023-04-01T05:17:04;22.10;;;11.88;;
46815;SDS011;32787;53.316;8.670;2023-04-01T05:19:33;17.85;;;11.02;;
46815;SDS011;32787;53.316;8.670;2023-04-01T05:21:58;18.30;;;11.40;;
46815;SDS011;32787;53.316;8.670;2023-04-01T05:24:24;18.75;;;11.30;;
46815;SDS011;32787;53.316;8.670;2023-04-01T05:26:50;16.65;;;10.82;;
46815;SDS011;32787;53.316;8.670;2023-04-01T05:29:15;20.70;;;11.63;;
46815;SDS011;32787;53.316;8.670;2023-04-01T05:31:41;17.35;;;11.15;;
46815;SDS011;32787;53.316;8.670;2023-04-01T05:34:06;19.38;;;10.63;;
46815;SDS011;32787;53.316;8.670;2023-04-01T05:36:32;21.02;;;11.60;;
46815;SDS011;32787;53.316;8.670;2023-04-01T05:38:57;19.60;;;12.45;;
46815;SDS011;32787;53.316;8.670;2023-04-01T05:41:23;16.90;;;10.77;;
46815;SDS011;32787;53.316;8.670;2023-04-01T05:43:49;20.50;;;10.73;;
46815;SDS011;32787;53.316;8.670;2023-04-01T05:46:14;17.52;;;10.43;;
46815;SDS011;32787;53.316;8.670;2023-04-01T05:48:40;19.48;;;10.40;;
46815;SDS011;32787;53.316;8.670;2023-04-01T05:51:06;22.35;;;10.45;;
46815;SDS011;32787;53.316;8.670;2023-04-01T05:53:31;17.30;;;10.20;;
46815;SDS011;32787;53.316;8.670;2023-04-01T05:56:01;14.93;;;10.20;;
46815;SDS011;32787;53.316;8.670;2023-04-01T05:58:27;15.13;;;9.60;;
46815;SDS011;32787;53.316;8.670;2023-04-01T06:00:59;15.55;;;8.95;;
46815;SDS011;32787;53.316;8.670;2023-04-01T06:03:29;19.08;;;9.80;;
46815;SDS011;32787;53.316;8.670;2023-04-01T06:05:55;17.08;;;10.02;;
46815;SDS011;32787;53.316;8.670;2023-04-01T06:08:20;16.17;;;9.40;;
46815;SDS011;32787;53.316;8.670;2023-04-01T06:18:55;14.00;;;8.82;;
46815;SDS011;32787;53.316;8.670;2023-04-01T06:21:37;15.93;;;9.40;;
46815;SDS011;32787;53.316;8.670;2023-04-01T06:27:24;15.63;;;9.05;;
46815;SDS011;32787;53.316;8.670;2023-04-01T06:38:20;15.93;;;8.77;;
46815;SDS011;32787;53.316;8.670;2023-04-01T06:49:21;13.13;;;8.35;;
46815;SDS011;32787;53.316;8.670;2023-04-01T06:54:39;14.60;;;7.65;;
46815;SDS011;32787;53.316;8.670;2023-04-01T06:57:51;16.27;;;8.13;;
46815;SDS011;32787;53.316;8.670;2023-04-01T07:00:02;12.07;;;7.53;;
46815;SDS011;32787;53.316;8.670;2023-04-01T07:05:02;13.13;;;7.38;;
46815;SDS011;32787;53.316;8.670;2023-04-01T07:07:35;12.52;;;7.18;;
46815;SDS011;32787;53.316;8.670;2023-04-01T07:10:03;10.63;;;6.63;;
46815;SDS011;32787;53.316;8.670;2023-04-01T07:12:54;12.20;;;7.35;;
46815;SDS011;32787;53.316;8.670;2023-04-01T07:15:30;12.27;;;7.90;;
46815;SDS011;32787;53.316;8.670;2023-04-01T07:18:02;12.55;;;7.05;;
46815;SDS011;32787;53.316;8.670;2023-04-01T07:20:35;12.57;;;6.97;;
46815;SDS011;32787;53.316;8.670;2023-04-01T07:23:04;11.60;;;6.78;;
46815;SDS011;32787;53.316;8.670;2023-04-01T07:25:42;10.68;;;6.30;;
46815;SDS011;32787;53.316;8.670;2023-04-01T07:28:12;11.13;;;6.23;;
46815;SDS011;32787;53.316;8.670;2023-04-01T07:38:50;11.35;;;6.25;;
46815;SDS011;32787;53.316;8.670;2023-04-01T07:41:51;12.15;;;6.25;;
46815;SDS011;32787;53.316;8.670;2023-04-01T07:52:53;9.70;;;5.80;;
46815;SDS011;32787;53.316;8.670;2023-04-01T07:55:45;10.57;;;5.68;;
46815;SDS011;32787;53.316;8.670;2023-04-01T08:03:57;10.63;;;5.30;;
46815;SDS011;32787;53.316;8.670;2023-04-01T08:06:36;8.63;;;5.38;;
46815;SDS011;32787;53.316;8.670;2023-04-01T08:09:11;9.82;;;5.80;;
46815;SDS011;32787;53.316;8.670;2023-04-01T08:12:12;10.38;;;5.50;;
46815;SDS011;32787;53.316;8.670;2023-04-01T08:15:15;8.63;;;4.63;;
46815;SDS011;32787;53.316;8.670;2023-04-01T08:23:14;8.23;;;3.80;;
46815;SDS011;32787;53.316;8.670;2023-04-01T08:26:04;6.32;;;3.28;;
46815;SDS011;32787;53.316;8.670;2023-04-01T08:28:41;6.40;;;3.38;;
46815;SDS011;32787;53.316;8.670;2023-04-01T08:31:18;5.55;;;3.08;;
46815;SDS011;32787;53.316;8.670;2023-04-01T08:33:48;2.67;;;1.20;;
46815;SDS011;32787;53.316;8.670;2023-04-01T08:38:53;1.65;;;1.00;;
46815;SDS011;32787;53.316;8.670;2023-04-01T08:44:11;2.15;;;1.00;;
46815;SDS011;32787;53.316;8.670;2023-04-01T08:52:36;2.77;;;1.30;;
46815;SDS011;32787;53.316;8.670;2023-04-01T09:03:35;5.28;;;1.40;;
46815;SDS011;32787;53.316;8.670;2023-04-01T09:08:52;3.53;;;1.70;;
46815;SDS011;32787;53.316;8.670;2023-04-01T09:31:08;4.85;;;2.85;;
46815;SDS011;32787;53.316;8.670;2023-04-01T09:45:07;8.77;;;5.65;;
46815;SDS011;32787;53.316;8.670;2023-04-01T09:47:51;10.35;;;5.63;;
46815;SDS011;32787;53.316;8.670;2023-04-01T09:50:35;9.10;;;5.00;;
46815;SDS011;32787;53.316;8.670;2023-04-01T10:07:19;10.25;;;6.43;;
46815;SDS011;32787;53.316;8.670;2023-04-01T10:21:07;10.35;;;6.88;;
46815;SDS011;32787;53.316;8.670;2023-04-01T10:24:01;10.65;;;7.40;;
46815;SDS011;32787;53.316;8.670;2023-04-01T10:32:30;11.00;;;6.57;;
46815;SDS011;32787;53.316;8.670;2023-04-01T10:43:13;7.80;;;4.63;;
46815;SDS011;32787;53.316;8.670;2023-04-01T10:54:45;9.63;;;6.85;;
46815;SDS011;32787;53.316;8.670;2023-04-01T11:14:25;11.02;;;7.40;;
46815;SDS011;32787;53.316;8.670;2023-04-01T11:31:16;10.85;;;8.02;;
46815;SDS011;32787;53.316;8.670;2023-04-01T11:37:02;11.73;;;7.45;;
46815;SDS011;32787;53.316;8.670;2023-04-01T11:45:40;7.90;;;5.53;;
46815;SDS011;32787;53.316;8.670;2023-04-01T11:48:26;6.38;;;4.50;;
46815;SDS011;32787;53.316;8.670;2023-04-01T11:53:47;7.00;;;5.15;;
46815;SDS011;32787;53.316;8.670;2023-04-01T12:02:10;9.43;;;6.20;;
46815;SDS011;32787;53.316;8.670;2023-04-01T12:10:39;5.75;;;3.55;;
46815;SDS011;32787;53.316;8.670;2023-04-01T12:21:48;6.90;;;4.30;;
46815;SDS011;32787;53.316;8.670;2023-04-01T12:24:29;7.07;;;4.47;;
46815;SDS011;32787;53.316;8.670;2023-04-01T12:27:12;6.20;;;4.30;;
46815;SDS011;32787;53.316;8.670;2023-04-01T12:30:02;6.80;;;3.85;;
46815;SDS011;32787;53.316;8.670;2023-04-01T12:43:55;4.97;;;2.88;;
46815;SDS011;32787;53.316;8.670;2023-04-01T12:47:00;7.03;;;2.70;;
46815;SDS011;32787;53.316;8.670;2023-04-01T12:52:25;4.50;;;2.67;;
46815;SDS011;32787;53.316;8.670;2023-04-01T13:00:54;3.90;;;2.20;;
46815;SDS011;32787;53.316;8.670;2023-04-01T13:03:43;6.20;;;2.50;;
46815;SDS011;32787;53.316;8.670;2023-04-01T13:15:05;5.70;;;3.70;;
46815;SDS011;32787;53.316;8.670;2023-04-01T13:20:35;6.55;;;4.10;;
46815;SDS011;32787;53.316;8.670;2023-04-01T13:25:39;6.07;;;3.25;;
46815;SDS011;32787;53.316;8.670;2023-04-01T13:28:26;5.30;;;3.03;;
46815;SDS011;32787;53.316;8.670;2023-04-01T13:31:01;5.15;;;2.80;;
46815;SDS011;32787;53.316;8.670;2023-04-01T13:33:42;5.25;;;2.80;;
46815;SDS011;32787;53.316;8.670;2023-04-01T13:36:52;6.70;;;2.60;;
46815;SDS011;32787;53.316;8.670;2023-04-01T13:42:18;5.47;;;3.30;;
46815;SDS011;32787;53.316;8.670;2023-04-01T13:44:51;5.50;;;3.40;;
46815;SDS011;32787;53.316;8.670;2023-04-01T14:01:26;6.63;;;3.17;;
46815;SDS011;32787;53.316;8.670;2023-04-01T14:07:12;7.82;;;3.85;;
46815;SDS011;32787;53.316;8.670;2023-04-01T14:13:18;6.93;;;3.78;;
46815;SDS011;32787;53.316;8.670;2023-04-01T14:18:13;10.23;;;4.85;;
46815;SDS011;32787;53.316;8.670;2023-04-01T14:38:04;11.85;;;6.15;;
46815;SDS011;32787;53.316;8.670;2023-04-01T14:40:53;10.55;;;5.80;;
46815;SDS011;32787;53.316;8.670;2023-04-01T14:49:04;11.45;;;5.28;;
46815;SDS011;32787;53.316;8.670;2023-04-01T14:52:02;9.95;;;5.13;;
46815;SDS011;32787;53.316;8.670;2023-04-01T14:54:37;8.95;;;5.32;;
46815;SDS011;32787;53.316;8.670;2023-04-01T14:59:46;9.50;;;5.18;;
46815;SDS011;32787;53.316;8.670;2023-04-01T15:02:18;10.15;;;5.15;;
46815;SDS011;32787;53.316;8.670;2023-04-01T15:05:12;10.27;;;5.10;;
46815;SDS011;32787;53.316;8.670;2023-04-01T15:08:00;9.52;;;5.22;;
46815;SDS011;32787;53.316;8.670;2023-04-01T15:10:40;10.38;;;5.22;;
46815;SDS011;32787;53.316;8.670;2023-04-01T15:18:45;12.65;;;6.85;;
46815;SDS011;32787;53.316;8.670;2023-04-01T15:24:10;9.00;;;5.72;;
46815;SDS011;32787;53.316;8.670;2023-04-01T15:37:56;10.43;;;4.30;;
46815;SDS011;32787;53.316;8.670;2023-04-01T15:40:29;9.93;;;4.80;;
46815;SDS011;32787;53.316;8.670;2023-04-01T15:45:58;12.18;;;4.57;;
46815;SDS011;32787;53.316;8.670;2023-04-01T15:57:25;10.38;;;4.97;;
46815;SDS011;32787;53.316;8.670;2023-04-01T16:00:24;12.15;;;5.28;;
46815;SDS011;32787;53.316;8.670;2023-04-01T16:21:51;11.85;;;5.40;;
46815;SDS011;32787;53.316;8.670;2023-04-01T16:24:43;8.73;;;3.92;;
46815;SDS011;32787;53.316;8.670;2023-04-01T16:32:34;11.65;;;5.40;;
46815;SDS011;32787;53.316;8.670;2023-04-01T16:35:25;10.77;;;4.63;;
46815;SDS011;32787;53.316;8.670;2023-04-01T16:38:03;8.77;;;4.50;;
46815;SDS011;32787;53.316;8.670;2023-04-01T16:40:47;9.93;;;4.60;;
46815;SDS011;32787;53.316;8.670;2023-04-01T16:43:28;11.00;;;5.15;;
46815;SDS011;32787;53.316;8.670;2023-04-01T16:46:15;10.77;;;4.80;;
46815;SDS011;32787;53.316;8.670;2023-04-01T16:48:58;15.55;;;5.53;;
46815;SDS011;32787;53.316;8.670;2023-04-01T16:51:44;13.30;;;5.63;;
46815;SDS011;32787;53.316;8.670;2023-04-01T16:54:19;13.93;;;5.78;;
46815;SDS011;32787;53.316;8.670;2023-04-01T16:59:40;12.38;;;5.78;;
46815;SDS011;32787;53.316;8.670;2023-04-01T17:04:47;11.18;;;4.82;;
46815;SDS011;32787;53.316;8.670;2023-04-01T17:13:06;10.00;;;4.38;;
46815;SDS011;32787;53.316;8.670;2023-04-01T17:15:51;9.60;;;4.68;;
46815;SDS011;32787;53.316;8.670;2023-04-01T17:21:55;10.05;;;5.38;;
46815;SDS011;32787;53.316;8.670;2023-04-01T17:24:37;10.57;;;4.75;;
46815;SDS011;32787;53.316;8.670;2023-04-01T17:32:54;13.10;;;4.85;;
46815;SDS011;32787;53.316;8.670;2023-04-01T17:44:12;13.82;;;5.88;;
46815;SDS011;32787;53.316;8.670;2023-04-01T17:49:56;15.25;;;6.72;;
46815;SDS011;32787;53.316;8.670;2023-04-01T17:55:26;14.15;;;5.82;;
46815;SDS011;32787;53.316;8.670;2023-04-01T18:06:03;12.68;;;5.93;;
46815;SDS011;32787;53.316;8.670;2023-04-01T18:22:23;10.35;;;5.60;;
46815;SDS011;32787;53.316;8.670;2023-04-01T18:25:05;12.52;;;5.80;;
46815;SDS011;32787;53.316;8.670;2023-04-01T18:27:38;12.38;;;5.50;;
46815;SDS011;32787;53.316;8.670;2023-04-01T18:32:54;14.48;;;6.40;;
46815;SDS011;32787;53.316;8.670;2023-04-01T18:40:35;12.27;;;5.88;;
46815;SDS011;32787;53.316;8.670;2023-04-01T18:49:14;12.73;;;5.53;;
46815;SDS011;32787;53.316;8.670;2023-04-01T18:51:51;15.48;;;5.72;;
46815;SDS011;32787;53.316;8.670;2023-04-01T18:57:01;10.20;;;5.68;;
46815;SDS011;32787;53.316;8.670;2023-04-01T19:05:20;13.95;;;5.35;;
46815;SDS011;32787;53.316;8.670;2023-04-01T19:07:55;16.10;;;5.53;;
46815;SDS011;32787;53.316;8.670;2023-04-01T19:10:57;11.68;;;5.82;;
46815;SDS011;32787;53.316;8.670;2023-04-01T19:16:03;12.13;;;5.57;;
46815;SDS011;32787;53.316;8.670;2023-04-01T19:38:08;9.57;;;4.63;;
46815;SDS011;32787;53.316;8.670;2023-04-01T19:41:04;10.57;;;3.83;;
46815;SDS011;32787;53.316;8.670;2023-04-01T19:43:55;9.90;;;4.75;;
46815;SDS011;32787;53.316;8.670;2023-04-01T19:46:30;8.88;;;4.63;;
46815;SDS011;32787;53.316;8.670;2023-04-01T19:52:05;10.43;;;5.03;;
46815;SDS011;32787;53.316;8.670;2023-04-01T20:05:15;11.57;;;5.00;;
46815;SDS011;32787;53.316;8.670;2023-04-01T20:07:55;15.05;;;5.25;;
46815;SDS011;32787;53.316;8.670;2023-04-01T20:10:47;9.95;;;4.60;;
46815;SDS011;32787;53.316;8.670;2023-04-01T20:16:04;11.45;;;4.72;;
46815;SDS011;32787;53.316;8.670;2023-04-01T20:18:45;14.68;;;4.72;;
46815;SDS011;32787;53.316;8.670;2023-04-01T20:21:36;15.05;;;5.25;;
46815;SDS011;32787;53.316;8.670;2023-04-01T20:26:51;12.40;;;4.32;;
46815;SDS011;32787;53.316;8.670;2023-04-01T20:40:58;11.35;;;4.90;;
46815;SDS011;32787;53.316;8.670;2023-04-01T20:57:05;11.35;;;4.93;;
46815;SDS011;32787;53.316;8.670;2023-04-01T21:00:14;9.93;;;4.60;;
46815;SDS011;32787;53.316;8.670;2023-04-01T21:08:51;10.88;;;5.05;;
46815;SDS011;32787;53.316;8.670;2023-04-01T21:14:05;7.65;;;4.25;;
46815;SDS011;32787;53.316;8.670;2023-04-01T21:19:19;9.90;;;4.65;;
46815;SDS011;32787;53.316;8.670;2023-04-01T21:41:07;11.95;;;4.40;;
46815;SDS011;32787;53.316;8.670;2023-04-01T21:43:54;10.93;;;5.30;;
46815;SDS011;32787;53.316;8.670;2023-04-01T21:49:43;10.85;;;4.72;;
46815;SDS011;32787;53.316;8.670;2023-04-01T22:00:19;9.68;;;4.53;;
46815;SDS011;32787;53.316;8.670;2023-04-01T22:05:39;8.38;;;4.28;;
46815;SDS011;32787;53.316;8.670;2023-04-01T22:16:59;12.93;;;4.13;;
46815;SDS011;32787;53.316;8.670;2023-04-01T22:19:46;12.93;;;4.15;;
46815;SDS011;32787;53.316;8.670;2023-04-01T22:28:09;9.85;;;4.03;;
46815;SDS011;32787;53.316;8.670;2023-04-01T22:30:49;10.07;;;3.70;;
46815;SDS011;32787;53.316;8.670;2023-04-01T22:33:29;8.63;;;3.40;;
46815;SDS011;32787;53.316;8.670;2023-04-01T22:38:44;12.15;;;4.25;;
46815;SDS011;32787;53.316;8.670;2023-04-01T22:55:12;10.25;;;4.05;;
46815;SDS011;32787;53.316;8.670;2023-04-01T22:58:05;12.88;;;4.20;;
46815;SDS011;32787;53.316;8.670;2023-04-01T23:00:38;10.45;;;3.90;;
46815;SDS011;32787;53.316;8.670;2023-04-01T23:05:44;8.57;;;3.38;;
46815;SDS011;32787;53.316;8.670;2023-04-01T23:08:29;8.45;;;3.58;;
46815;SDS011;32787;53.316;8.670;2023-04-01T23:11:11;13.85;;;4.05;;
46815;SDS011;32787;53.316;8.670;2023-04-01T23:13:45;9.95;;;3.47;;
46815;SDS011;32787;53.316;8.670;2023-04-01T23:16:31;12.52;;;3.90;;
46815;SDS011;32787;53.316;8.670;2023-04-01T23:19:14;11.52;;;3.70;;
46815;SDS011;32787;53.316;8.670;2023-04-01T23:21:51;7.57;;;3.10;;
46815;SDS011;32787;53.316;8.670;2023-04-01T23:24:28;11.02;;;3.22;;
46815;SDS011;32787;53.316;8.670;2023-04-01T23:27:09;9.05;;;3.55;;
46815;SDS011;32787;53.316;8.670;2023-04-01T23:29:42;15.85;;;4.07;;
46815;SDS011;32787;53.316;8.670;2023-04-01T23:32:15;8.80;;;2.97;;
46815;SDS011;32787;53.316;8.670;2023-04-01T23:35:11;11.05;;;3.55;;
46815;SDS011;32787;53.316;8.670;2023-04-01T23:37:41;8.32;;;3.42;;
46815;SDS011;32787;53.316;8.670;2023-04-01T23:40:10;10.45;;;3.25;;
46815;SDS011;32787;53.316;8.670;2023-04-01T23:42:38;10.43;;;3.45;;
46815;SDS011;32787;53.316;8.670;2023-04-01T23:45:13;9.30;;;3.40;;
46815;SDS011;32787;53.316;8.670;2023-04-01T23:47:47;8.10;;;3.42;;
46815;SDS011;32787;53.316;8.670;2023-04-01T23:53:32;10.77;;;3.67;;
46815;SDS011;32787;53.316;8.670;2023-04-01T23:55:43;8.85;;;3.00;;
